createdAt,value
2018-06-14T04:36:47.079Z,94272.05
2018-06-14T04:39:17.272Z,94265.81
2018-06-14T04:41:47.444Z,94268.42
2018-06-14T04:44:17.636Z,94278.64
2018-06-14T04:46:47.891Z,94277.17
2018-06-14T04:49:18.204Z,94273.44
2018-06-14T04:51:48.455Z,94274.98
2018-06-14T04:54:18.537Z,94277.87
2018-06-14T04:56:55.500Z,94278.08
2018-06-14T04:59:26.456Z,94277.87
2018-06-14T05:01:56.707Z,94274.11
2018-06-14T05:04:26.936Z,94275.77
2018-06-14T05:06:57.237Z,94276.02
2018-06-14T05:09:27.506Z,94277.12
2018-06-14T05:11:57.783Z,94278.97
2018-06-14T05:14:28.138Z,94286.38
2018-06-14T05:16:58.820Z,94284.89
2018-06-14T05:19:29.095Z,94289.60
2018-06-14T05:21:59.405Z,94289.58
2018-06-14T05:24:29.647Z,94285.29
2018-06-14T05:27:00.056Z,94284.16
2018-06-14T05:29:30.477Z,94280.50
2018-06-14T05:32:00.884Z,94273.77
2018-06-14T05:34:31.184Z,94282.77
2018-06-14T05:37:01.434Z,94268.83
2018-06-14T05:39:31.750Z,94269.86
2018-06-14T05:42:02.014Z,94268.34
2018-06-14T05:44:32.446Z,94260.30
2018-06-14T05:47:02.984Z,94261.94
2018-06-14T05:49:33.284Z,94263.94
2018-06-14T05:52:03.726Z,94267.67
2018-06-14T05:54:40.101Z,94265.09
2018-06-14T05:57:10.465Z,94268.18
2018-06-14T05:59:40.648Z,94267.88
2018-06-14T06:02:10.871Z,94267.95
2018-06-14T06:04:41.236Z,94275.64
2018-06-14T06:07:11.491Z,94275.55
2018-06-14T06:09:41.765Z,94274.49
2018-06-14T06:12:12.104Z,94270.55
2018-06-14T06:14:42.389Z,94259.05
2018-06-14T06:17:12.825Z,94251.59
2018-06-14T06:19:43.123Z,94256.92
2018-06-14T06:22:12.999Z,94259.55
2018-06-14T06:24:43.295Z,94273.91
2018-06-14T06:27:13.541Z,94274.08
2018-06-14T06:29:43.886Z,94271.05
2018-06-14T06:32:14.351Z,94288.34
2018-06-14T06:34:44.641Z,94295.48
2018-06-14T06:37:14.944Z,94301.20
2018-06-14T06:39:45.329Z,94297.73
2018-06-14T06:42:15.731Z,94295.34
2018-06-14T06:44:46.155Z,94304.05
2018-06-14T06:47:16.284Z,94304.78
2018-06-14T06:49:46.621Z,94300.04
2018-06-14T06:52:16.836Z,94306.59
2018-06-14T06:54:47.291Z,94304.80
2018-06-14T06:57:17.644Z,94300.11
2018-06-14T06:59:48.062Z,94307.41
2018-06-14T07:02:18.312Z,94305.23
2018-06-14T07:04:48.650Z,94300.98
2018-06-14T07:07:25.453Z,94296.19
2018-06-14T07:09:55.779Z,94300.38
2018-06-14T07:12:26.285Z,94301.09
2018-06-14T07:14:57.045Z,94304.66
2018-06-14T07:17:27.303Z,94300.25
2018-06-14T07:19:57.893Z,94297.26
2018-06-14T07:22:28.168Z,94297.00
2018-06-14T07:24:58.335Z,94306.37
2018-06-14T07:27:28.614Z,94304.98
2018-06-14T07:29:58.910Z,94310.68
2018-06-14T07:32:29.123Z,94303.84
2018-06-14T07:34:59.336Z,94306.23
2018-06-14T07:37:29.631Z,94320.91
2018-06-14T07:39:59.836Z,94319.45
2018-06-14T07:42:30.144Z,94326.92
2018-06-14T07:45:00.371Z,94339.70
2018-06-14T07:47:30.684Z,94334.24
2018-06-14T07:50:01.081Z,94337.52
2018-06-14T07:52:31.384Z,94343.14
2018-06-14T07:55:01.871Z,94354.22
2018-06-14T07:57:32.158Z,94355.42
2018-06-14T08:00:02.436Z,94357.59
2018-06-14T08:02:32.885Z,94360.45
2018-06-14T08:05:03.065Z,94361.77
2018-06-14T08:07:33.322Z,94364.75
2018-06-14T08:10:03.592Z,94357.90
2018-06-14T08:12:33.971Z,94367.22
2018-06-14T08:15:04.686Z,94370.73
2018-06-14T08:17:35.102Z,94371.99
2018-06-14T08:20:05.480Z,94372.95
2018-06-14T08:22:35.864Z,94375.69
2018-06-14T08:25:06.125Z,94377.75
2018-06-14T08:27:36.286Z,94376.50
2018-06-14T08:30:06.658Z,94379.82
2018-06-14T08:32:37.025Z,94376.37
2018-06-14T08:35:07.419Z,94374.89
2018-06-14T08:37:37.812Z,94380.56
2018-06-14T08:40:08.299Z,94381.21
2018-06-14T08:42:38.566Z,94380.62
2018-06-14T08:45:08.937Z,94390.53
2018-06-14T08:47:39.315Z,94397.79
2018-06-14T08:50:09.788Z,94398.37
2018-06-14T08:52:40.115Z,94399.77
2018-06-14T08:55:10.186Z,94403.87
2018-06-14T08:57:40.590Z,94398.69
2018-06-14T09:00:10.898Z,94397.47
2018-06-14T09:02:41.575Z,94393.43
2018-06-14T09:05:11.793Z,94394.84
2018-06-14T09:07:48.542Z,94390.80
2018-06-14T09:10:18.877Z,94397.13
2018-06-14T09:12:49.196Z,94393.80
2018-06-14T09:15:19.556Z,94390.10
2018-06-14T09:17:49.966Z,94381.82
2018-06-14T09:20:20.337Z,94384.73
2018-06-14T09:22:50.798Z,94383.17
2018-06-14T09:25:21.125Z,94382.00
2018-06-14T09:27:51.470Z,94375.34
2018-06-14T09:30:21.792Z,94364.12
2018-06-14T09:32:52.110Z,94364.17
2018-06-14T09:35:22.317Z,94360.86
2018-06-14T09:37:52.679Z,94356.02
2018-06-14T09:40:23.062Z,94359.12
2018-06-14T09:42:53.432Z,94360.56
2018-06-14T09:45:24.413Z,94366.30
2018-06-14T09:47:54.838Z,94368.37
2018-06-14T09:50:25.162Z,94364.19
2018-06-14T09:52:55.679Z,94366.27
2018-06-14T09:55:26.153Z,94372.14
2018-06-14T09:57:56.451Z,94363.38
2018-06-14T10:00:26.843Z,94366.01
2018-06-14T10:02:57.360Z,94362.33
2018-06-14T10:05:27.565Z,94356.28
2018-06-14T10:07:57.892Z,94352.30
2018-06-14T10:10:28.235Z,94347.27
2018-06-14T10:12:58.572Z,94345.78
2018-06-14T10:15:28.770Z,94343.88
2018-06-14T10:17:59.281Z,94344.14
2018-06-14T10:20:29.738Z,94336.14
2018-06-14T10:23:00.047Z,94329.41
2018-06-14T10:25:30.816Z,94327.31
2018-06-14T10:28:01.200Z,94319.42
2018-06-14T10:30:31.488Z,94308.91
2018-06-14T10:33:01.692Z,94311.25
2018-06-14T10:35:32.066Z,94300.49
2018-06-14T10:38:02.469Z,94301.80
2018-06-14T10:40:32.667Z,94306.13
2018-06-14T10:43:05.600Z,94303.66
2018-06-14T10:45:35.990Z,94307.25
2018-06-14T10:48:06.385Z,94309.52
2018-06-14T10:50:36.500Z,94301.12
2018-06-14T10:53:06.852Z,94299.84
2018-06-14T10:55:36.939Z,94304.23
2018-06-14T10:58:07.708Z,94301.05
2018-06-14T11:00:38.736Z,94297.45
2018-06-14T11:03:09.133Z,94299.96
2018-06-14T11:05:39.330Z,94291.66
2018-06-14T11:08:09.629Z,94294.63
2018-06-14T11:10:40.292Z,94301.56
2018-06-14T11:13:10.656Z,94297.33
2018-06-14T11:15:41.108Z,94289.71
2018-06-14T11:18:11.325Z,94291.09
2018-06-14T11:20:41.721Z,94281.52
2018-06-14T11:23:12.076Z,94286.36
2018-06-14T11:25:42.481Z,94288.28
2018-06-14T11:28:12.977Z,94291.23
2018-06-14T11:30:44.189Z,94282.16
2018-06-14T11:33:14.558Z,94273.55
2018-06-14T11:35:45.382Z,94270.67
2018-06-14T11:38:15.694Z,94270.42
2018-06-14T11:40:46.317Z,94261.61
2018-06-14T11:43:16.640Z,94261.93
2018-06-14T11:45:46.900Z,94266.77
2018-06-14T11:48:17.295Z,94265.44
2018-06-14T11:50:47.699Z,94266.77
2018-06-14T11:53:17.909Z,94264.11
2018-06-14T11:55:48.377Z,94273.11
2018-06-14T11:58:18.868Z,94264.81
2018-06-14T12:00:49.306Z,94258.74
2018-06-14T12:03:19.965Z,94260.61
2018-06-14T12:05:50.759Z,94260.02
2018-06-14T12:08:21.142Z,94265.09
2018-06-14T12:10:51.604Z,94269.63
2018-06-14T12:13:22.026Z,94271.55
2018-06-14T12:15:52.458Z,94268.65
2018-06-14T12:18:29.105Z,94265.44
2018-06-14T12:20:59.343Z,94268.10
2018-06-14T12:23:29.843Z,94264.09
2018-06-14T12:26:00.056Z,94263.05
2018-06-14T12:28:30.335Z,94269.41
2018-06-14T12:31:00.584Z,94261.41
2018-06-14T12:33:31.020Z,94249.13
2018-06-14T12:36:01.504Z,94246.41
2018-06-14T12:38:31.696Z,94237.92
2018-06-14T12:41:02.117Z,94243.80
2018-06-14T12:43:32.421Z,94233.66
2018-06-14T12:46:02.748Z,94229.13
2018-06-14T12:48:33.217Z,94251.80
2018-06-14T12:51:03.716Z,94247.53
2018-06-14T12:53:34.057Z,94255.55
2018-06-14T12:56:04.297Z,94257.70
2018-06-14T12:58:34.737Z,94257.44
2018-06-14T13:01:05.380Z,94258.02
2018-06-14T13:03:35.647Z,94257.46
2018-06-14T13:06:06.112Z,94249.17
2018-06-14T13:08:36.627Z,94251.88
2018-06-14T13:11:07.015Z,94250.24
2018-06-14T13:13:37.615Z,94245.69
2018-06-14T13:16:08.102Z,94246.49
2018-06-14T13:18:38.540Z,94248.09
2018-06-14T13:21:08.916Z,94249.16
2018-06-14T13:23:39.436Z,94251.29
2018-06-14T13:26:09.383Z,94248.88
2018-06-14T13:28:39.595Z,94250.66
2018-06-14T13:31:10.232Z,94241.00
2018-06-14T13:33:40.751Z,94239.64
2018-06-14T13:36:11.045Z,94241.53
2018-06-14T13:38:41.413Z,94242.03
2018-06-14T13:41:11.758Z,94249.74
2018-06-14T13:43:42.009Z,94256.95
2018-06-14T13:46:12.355Z,94268.16
2018-06-14T13:48:42.701Z,94277.68
2018-06-14T13:51:13.336Z,94280.93
2018-06-14T13:53:43.729Z,94290.72
2018-06-14T13:56:14.032Z,94281.88
2018-06-14T13:58:44.684Z,94277.73
2018-06-14T14:01:15.187Z,94268.10
2018-06-14T14:03:45.864Z,94272.33
2018-06-14T14:06:16.226Z,94259.77
2018-06-14T14:08:46.762Z,94264.34
2018-06-14T14:11:17.343Z,94257.70
2018-06-14T14:13:47.699Z,94247.34
2018-06-14T14:16:18.129Z,94246.81
2018-06-14T14:18:48.784Z,94251.94
2018-06-14T14:21:19.196Z,94257.53
2018-06-14T14:23:49.511Z,94251.94
2018-06-14T14:26:19.973Z,94245.51
2018-06-14T14:28:50.418Z,94235.73
2018-06-14T14:31:20.668Z,94236.23
2018-06-14T14:33:51.193Z,94226.37
2018-06-14T14:36:21.492Z,94228.53
2018-06-14T14:38:51.760Z,94226.37
2018-06-14T14:41:22.318Z,94219.27
2018-06-14T14:43:52.576Z,94218.98
2018-06-14T14:46:22.865Z,94219.70
2018-06-14T14:48:53.125Z,94218.13
2018-06-14T14:51:23.662Z,94218.45
2018-06-14T14:54:00.372Z,94228.31
2018-06-14T14:56:31.053Z,94241.27
2018-06-14T14:59:01.201Z,94238.58
2018-06-14T15:01:31.621Z,94240.41
2018-06-14T15:04:01.954Z,94237.52
2018-06-14T15:06:32.463Z,94240.45
2018-06-14T15:09:02.995Z,94234.88
2018-06-14T15:11:33.482Z,94229.59
2018-06-14T15:14:03.808Z,94220.84
2018-06-14T15:16:34.125Z,94215.78
2018-06-14T15:19:04.575Z,94204.31
2018-06-14T15:21:34.963Z,94200.37
2018-06-14T15:24:05.373Z,94205.67
2018-06-14T15:26:36.146Z,94204.58
2018-06-14T15:29:06.544Z,94198.75
2018-06-14T15:31:36.730Z,94197.16
2018-06-14T15:34:07.257Z,94195.00
2018-06-14T15:36:37.601Z,94185.86
2018-06-14T15:39:09.161Z,94184.84
2018-06-14T15:41:39.470Z,94184.58
2018-06-14T15:44:09.942Z,94183.80
2018-06-14T15:46:40.156Z,94174.52
2018-06-14T15:49:10.561Z,94170.50
2018-06-14T15:51:40.848Z,94168.88
2018-06-14T15:54:14.200Z,94168.60
2018-06-14T15:56:44.450Z,94164.09
2018-06-14T15:59:16.395Z,94169.17
2018-06-14T16:01:46.734Z,94175.59
2018-06-14T16:04:17.035Z,94175.24
2018-06-14T16:06:47.368Z,94179.27
2018-06-14T16:09:17.632Z,94185.41
2018-06-14T16:11:48.017Z,94192.13
2018-06-14T16:14:18.425Z,94198.23
2018-06-14T16:16:48.809Z,94195.82
2018-06-14T16:19:19.037Z,94199.27
2018-06-14T16:21:49.409Z,94191.16
2018-06-14T16:24:19.721Z,94199.44
2018-06-14T16:26:49.966Z,94196.85
2018-06-14T16:29:20.638Z,94199.20
2018-06-14T16:31:51.000Z,94202.13
2018-06-14T16:34:21.397Z,94199.24
2018-06-14T16:36:51.619Z,94203.39
2018-06-14T16:39:22.649Z,94204.39
2018-06-14T16:41:53.250Z,94200.72
2018-06-14T16:44:23.556Z,94205.64
2018-06-14T16:46:53.850Z,94215.65
2018-06-14T16:49:24.153Z,94218.84
2018-06-14T16:51:54.559Z,94222.05
2018-06-14T16:54:25.022Z,94227.91
2018-06-14T16:56:55.273Z,94226.34
2018-06-14T16:59:25.611Z,94225.69
2018-06-14T17:01:55.862Z,94226.80
2018-06-14T17:04:26.408Z,94232.91
2018-06-14T17:06:56.595Z,94238.23
2018-06-14T17:09:27.045Z,94240.19
2018-06-14T17:11:57.557Z,94246.59
2018-06-14T17:14:27.798Z,94247.91
2018-06-14T17:16:58.460Z,94258.41
2018-06-14T17:19:28.929Z,94260.00
2018-06-14T17:21:59.476Z,94254.13
2018-06-14T17:24:29.819Z,94256.08
2018-06-14T17:27:00.111Z,94256.36
2018-06-14T17:29:30.375Z,94259.59
2018-06-14T17:32:00.608Z,94257.42
2018-06-14T17:34:30.852Z,94251.27
2018-06-14T17:37:01.059Z,94257.70
2018-06-14T17:39:31.601Z,94257.17
2018-06-14T17:42:01.951Z,94256.90
2018-06-14T17:44:32.260Z,94254.77
2018-06-14T17:47:03.378Z,94255.05
2018-06-14T17:49:33.764Z,94260.11
2018-06-14T17:52:04.209Z,94264.92
2018-06-14T17:54:34.600Z,94266.53
2018-06-14T17:57:04.954Z,94266.27
2018-06-14T17:59:35.251Z,94265.20
2018-06-14T18:02:05.609Z,94263.86
2018-06-14T18:04:35.821Z,94263.88
2018-06-14T18:07:06.076Z,94270.02
2018-06-14T18:09:36.276Z,94269.20
2018-06-14T18:12:06.537Z,94269.20
2018-06-14T18:14:36.916Z,94267.04
2018-06-14T18:17:07.276Z,94270.50
2018-06-14T18:19:37.629Z,94267.98
2018-06-14T18:22:07.899Z,94273.30
2018-06-14T18:24:38.470Z,94274.42
2018-06-14T18:27:08.850Z,94273.16
2018-06-14T18:29:39.334Z,94279.84
2018-06-14T18:32:09.722Z,94282.25
2018-06-14T18:34:39.951Z,94287.86
2018-06-14T18:37:10.393Z,94290.80
2018-06-14T18:39:40.608Z,94291.05
2018-06-14T18:42:10.771Z,94303.88
2018-06-14T18:44:41.000Z,94302.53
2018-06-14T18:47:11.298Z,94307.34
2018-06-14T18:49:41.537Z,94309.50
2018-06-14T18:52:12.056Z,94312.44
2018-06-14T18:54:42.329Z,94316.43
2018-06-14T18:57:12.548Z,94325.49
2018-06-14T18:59:42.954Z,94327.09
2018-06-14T19:02:13.168Z,94331.08
2018-06-14T19:04:43.334Z,94329.44
2018-06-14T19:07:13.633Z,94323.54
2018-06-14T19:09:44.293Z,94326.97
2018-06-14T19:12:14.348Z,94328.77
2018-06-14T19:14:44.572Z,94335.59
2018-06-14T19:17:14.944Z,94331.82
2018-06-14T19:19:45.484Z,94330.05
2018-06-14T19:22:15.670Z,94333.00
2018-06-14T19:24:45.991Z,94336.80
2018-06-14T19:27:16.327Z,94337.56
2018-06-14T19:29:46.508Z,94343.38
2018-06-14T19:32:16.707Z,94350.94
2018-06-14T19:34:46.984Z,94355.45
2018-06-14T19:37:17.220Z,94349.09
2018-06-14T19:39:47.388Z,94346.66
2018-06-14T19:42:17.688Z,94344.02
2018-06-14T19:44:47.935Z,94339.48
2018-06-14T19:47:18.201Z,94336.81
2018-06-14T19:49:48.618Z,94345.09
2018-06-14T19:52:18.911Z,94341.60
2018-06-14T19:54:49.114Z,94338.39
2018-06-14T19:57:19.788Z,94338.63
2018-06-14T19:59:50.008Z,94332.47
2018-06-14T20:02:20.210Z,94337.56
2018-06-14T20:04:50.534Z,94338.34
2018-06-14T20:07:20.799Z,94337.78
2018-06-14T20:09:51.012Z,94345.30
2018-06-14T20:12:21.162Z,94345.25
2018-06-14T20:14:51.449Z,94344.42
2018-06-14T20:17:21.775Z,94340.98
2018-06-14T20:19:52.048Z,94346.34
2018-06-14T20:22:22.457Z,94351.95
2018-06-14T20:24:52.731Z,94351.92
2018-06-14T20:27:23.108Z,94347.15
2018-06-14T20:29:56.228Z,94347.65
2018-06-14T20:32:26.497Z,94346.02
2018-06-14T20:34:56.740Z,94346.52
2018-06-14T20:37:27.299Z,94337.42
2018-06-14T20:39:57.615Z,94341.92
2018-06-14T20:42:27.807Z,94339.02
2018-06-14T20:44:58.119Z,94342.52
2018-06-14T20:47:28.527Z,94335.88
2018-06-14T20:49:58.760Z,94342.28
2018-06-14T20:52:28.742Z,94344.42
2018-06-14T20:54:58.928Z,94344.13
2018-06-14T20:57:29.018Z,94345.29
2018-06-14T20:59:59.439Z,94343.53
2018-06-14T21:02:29.651Z,94342.24
2018-06-14T21:05:00.033Z,94337.32
2018-06-14T21:07:30.527Z,94334.39
2018-06-14T21:10:00.844Z,94330.05
2018-06-14T21:12:31.156Z,94329.19
2018-06-14T21:15:01.409Z,94322.09
2018-06-14T21:17:31.679Z,94325.86
2018-06-14T21:20:01.888Z,94330.52
2018-06-14T21:22:32.088Z,94330.48
2018-06-14T21:25:02.405Z,94337.86
2018-06-14T21:27:32.713Z,94331.01
2018-06-14T21:30:02.938Z,94333.28
2018-06-14T21:32:33.168Z,94332.00
2018-06-14T21:35:03.378Z,94330.66
2018-06-14T21:37:33.686Z,94329.77
2018-06-14T21:40:03.977Z,94324.20
2018-06-14T21:42:34.455Z,94326.64
2018-06-14T21:45:04.713Z,94330.28
2018-06-14T21:47:34.987Z,94338.67
2018-06-14T21:50:05.730Z,94339.66
2018-06-14T21:52:36.004Z,94329.70
2018-06-14T21:55:06.344Z,94335.61
2018-06-14T21:57:36.766Z,94337.55
2018-06-14T22:00:07.615Z,94329.87
2018-06-14T22:02:43.124Z,94335.18
2018-06-14T22:05:13.214Z,94330.06
2018-06-14T22:07:43.497Z,94335.18
2018-06-14T22:10:13.688Z,94336.78
2018-06-14T22:12:43.976Z,94335.09
2018-06-14T22:15:14.210Z,94340.66
2018-06-14T22:17:44.508Z,94341.28
2018-06-14T22:20:14.823Z,94336.47
2018-06-14T22:22:44.967Z,94342.53
2018-06-14T22:25:15.308Z,94333.14
2018-06-14T22:27:45.541Z,94333.59
2018-06-14T22:30:15.941Z,94337.23
2018-06-14T22:32:46.644Z,94335.61
2018-06-14T22:35:27.973Z,94330.84
2018-06-14T22:37:58.348Z,94331.16
2018-06-14T22:40:28.652Z,94335.30
2018-06-14T22:42:58.820Z,94324.72
2018-06-14T22:45:29.126Z,94332.39
2018-06-14T22:47:59.425Z,94332.41
2018-06-14T22:50:41.072Z,94332.20
2018-06-14T22:53:11.715Z,94333.45
2018-06-14T22:55:42.514Z,94335.08
2018-06-14T22:58:12.772Z,94340.15
2018-06-14T23:00:48.531Z,94332.23
2018-06-14T23:03:18.174Z,94333.07
2018-06-14T23:05:48.449Z,94335.88
2018-06-14T23:08:18.701Z,94336.95
2018-06-14T23:10:59.424Z,94340.26
2018-06-14T23:13:29.399Z,94338.39
2018-06-14T23:15:59.653Z,94341.22
2018-06-14T23:18:29.904Z,94339.56
2018-06-14T23:21:00.159Z,94337.43
2018-06-14T23:23:30.328Z,94335.45
2018-06-14T23:26:00.548Z,94337.83
2018-06-14T23:28:30.794Z,94341.83
2018-06-14T23:31:01.044Z,94334.34
2018-06-14T23:33:31.240Z,94333.52
2018-06-14T23:36:01.511Z,94335.40
2018-06-14T23:38:31.750Z,94333.05
2018-06-14T23:41:01.956Z,94337.86
2018-06-14T23:43:32.107Z,94337.31
2018-06-14T23:46:02.296Z,94336.58
2018-06-14T23:48:32.595Z,94338.50
2018-06-14T23:51:02.824Z,94342.02
2018-06-14T23:53:33.116Z,94329.83
2018-06-14T23:56:03.429Z,94338.50
2018-06-14T23:58:33.672Z,94339.03
